sensor_id;sensor_type;location;lat;lon;timestamp;temperature;humidity
3860;DHT22;1945;52.036;8.614;2023-04-01T00:01:27;10.20;1.00
3860;DHT22;1945;52.036;8.614;2023-04-01T00:03:54;9.70;1.00
3860;DHT22;1945;52.036;8.614;2023-04-01T00:06:22;9.70;1.00
3860;DHT22;1945;52.036;8.614;2023-04-01T00:08:48;9.70;1.00
3860;DHT22;1945;52.036;8.614;2023-04-01T00:11:15;10.20;1.00
3860;DHT22;1945;52.036;8.614;2023-04-01T00:13:44;9.70;1.00
3860;DHT22;1945;52.036;8.614;2023-04-01T00:16:11;9.70;1.00
3860;DHT22;1945;52.036;8.614;2023-04-01T00:18:37;9.70;1.00
3860;DHT22;1945;52.036;8.614;2023-04-01T00:21:05;10.00;1.00
3860;DHT22;1945;52.036;8.614;2023-04-01T00:23:31;9.60;1.00
3860;DHT22;1945;52.036;8.614;2023-04-01T00:25:59;10.00;1.00
3860;DHT22;1945;52.036;8.614;2023-04-01T00:28:27;10.10;1.00
3860;DHT22;1945;52.036;8.614;2023-04-01T00:30:55;10.10;1.00
3860;DHT22;1945;52.036;8.614;2023-04-01T00:33:21;9.60;1.00
3860;DHT22;1945;52.036;8.614;2023-04-01T00:35:48;9.60;1.00
3860;DHT22;1945;52.036;8.614;2023-04-01T00:38:15;10.00;1.00
3860;DHT22;1945;52.036;8.614;2023-04-01T00:40:45;9.60;1.00
3860;DHT22;1945;52.036;8.614;2023-04-01T00:43:13;9.60;1.00
3860;DHT22;1945;52.036;8.614;2023-04-01T00:45:41;9.60;1.00
3860;DHT22;1945;52.036;8.614;2023-04-01T00:48:13;9.60;1.00
3860;DHT22;1945;52.036;8.614;2023-04-01T00:50:43;9.50;1.00
3860;DHT22;1945;52.036;8.614;2023-04-01T00:53:11;9.90;1.00
3860;DHT22;1945;52.036;8.614;2023-04-01T00:55:43;9.60;1.00
3860;DHT22;1945;52.036;8.614;2023-04-01T00:58:15;10.30;1.00
3860;DHT22;1945;52.036;8.614;2023-04-01T01:00:44;9.60;5.00
3860;DHT22;1945;52.036;8.614;2023-04-01T01:03:12;9.70;6.10
3860;DHT22;1945;52.036;8.614;2023-04-01T01:06:00;9.60;10.60
3860;DHT22;1945;52.036;8.614;2023-04-01T01:08:39;9.60;9.70
3860;DHT22;1945;52.036;8.614;2023-04-01T01:11:14;9.60;1.00
3860;DHT22;1945;52.036;8.614;2023-04-01T01:13:46;9.60;1.00
3860;DHT22;1945;52.036;8.614;2023-04-01T01:16:20;9.60;1.00
3860;DHT22;1945;52.036;8.614;2023-04-01T01:18:56;9.60;1.00
3860;DHT22;1945;52.036;8.614;2023-04-01T01:21:38;10.00;1.00
3860;DHT22;1945;52.036;8.614;2023-04-01T01:24:30;9.60;1.00
3860;DHT22;1945;52.036;8.614;2023-04-01T01:27:02;9.60;1.00
3860;DHT22;1945;52.036;8.614;2023-04-01T01:32:38;9.50;1.00
3860;DHT22;1945;52.036;8.614;2023-04-01T01:35:19;9.60;1.00
3860;DHT22;1945;52.036;8.614;2023-04-01T01:37:49;9.60;1.00
3860;DHT22;1945;52.036;8.614;2023-04-01T01:40:18;9.60;1.00
3860;DHT22;1945;52.036;8.614;2023-04-01T01:42:48;9.60;1.00
3860;DHT22;1945;52.036;8.614;2023-04-01T01:45:18;9.60;1.00
3860;DHT22;1945;52.036;8.614;2023-04-01T01:47:47;9.50;1.00
3860;DHT22;1945;52.036;8.614;2023-04-01T01:50:17;9.50;1.00
3860;DHT22;1945;52.036;8.614;2023-04-01T01:52:44;9.90;1.00
3860;DHT22;1945;52.036;8.614;2023-04-01T01:55:26;9.60;1.00
3860;DHT22;1945;52.036;8.614;2023-04-01T01:57:55;9.60;1.00
3860;DHT22;1945;52.036;8.614;2023-04-01T02:00:24;10.00;1.00
3860;DHT22;1945;52.036;8.614;2023-04-01T02:02:51;9.80;1.00
3860;DHT22;1945;52.036;8.614;2023-04-01T02:05:22;9.50;1.00
3860;DHT22;1945;52.036;8.614;2023-04-01T02:07:52;9.90;1.00
3860;DHT22;1945;52.036;8.614;2023-04-01T02:10:25;10.00;1.00
3860;DHT22;1945;52.036;8.614;2023-04-01T02:12:56;9.50;1.00
3860;DHT22;1945;52.036;8.614;2023-04-01T02:15:26;9.90;1.00
3860;DHT22;1945;52.036;8.614;2023-04-01T02:17:56;9.40;1.00
3860;DHT22;1945;52.036;8.614;2023-04-01T02:20:25;9.40;1.00
3860;DHT22;1945;52.036;8.614;2023-04-01T02:22:54;9.40;1.00
3860;DHT22;1945;52.036;8.614;2023-04-01T02:25:26;9.90;1.00
3860;DHT22;1945;52.036;8.614;2023-04-01T02:27:55;9.80;1.00
3860;DHT22;1945;52.036;8.614;2023-04-01T02:30:23;9.80;1.00
3860;DHT22;1945;52.036;8.614;2023-04-01T02:32:51;9.40;1.00
3860;DHT22;1945;52.036;8.614;2023-04-01T02:35:18;9.40;1.00
3860;DHT22;1945;52.036;8.614;2023-04-01T02:37:49;9.40;1.00
3860;DHT22;1945;52.036;8.614;2023-04-01T02:40:17;9.40;1.00
3860;DHT22;1945;52.036;8.614;2023-04-01T02:42:45;9.40;1.00
3860;DHT22;1945;52.036;8.614;2023-04-01T02:45:13;9.40;1.00
3860;DHT22;1945;52.036;8.614;2023-04-01T02:47:40;9.30;1.00
3860;DHT22;1945;52.036;8.614;2023-04-01T02:50:08;9.80;1.00
3860;DHT22;1945;52.036;8.614;2023-04-01T02:52:35;9.40;1.00
3860;DHT22;1945;52.036;8.614;2023-04-01T02:55:05;9.70;1.00
3860;DHT22;1945;52.036;8.614;2023-04-01T02:57:32;9.40;1.00
3860;DHT22;1945;52.036;8.614;2023-04-01T02:59:58;9.80;1.00
3860;DHT22;1945;52.036;8.614;2023-04-01T03:02:25;9.80;1.00
3860;DHT22;1945;52.036;8.614;2023-04-01T03:04:52;9.70;1.00
3860;DHT22;1945;52.036;8.614;2023-04-01T03:07:19;9.90;1.00
3860;DHT22;1945;52.036;8.614;2023-04-01T03:09:45;9.30;1.00
3860;DHT22;1945;52.036;8.614;2023-04-01T03:12:13;9.80;1.00
3860;DHT22;1945;52.036;8.614;2023-04-01T03:14:40;9.60;1.00
3860;DHT22;1945;52.036;8.614;2023-04-01T03:17:07;9.40;1.00
3860;DHT22;1945;52.036;8.614;2023-04-01T03:19:34;9.30;1.00
3860;DHT22;1945;52.036;8.614;2023-04-01T03:22:00;9.70;1.00
3860;DHT22;1945;52.036;8.614;2023-04-01T03:24:27;9.40;1.00
3860;DHT22;1945;52.036;8.614;2023-04-01T03:26:54;9.30;1.00
3860;DHT22;1945;52.036;8.614;2023-04-01T03:29:22;9.30;1.00
3860;DHT22;1945;52.036;8.614;2023-04-01T03:31:48;9.30;1.00
3860;DHT22;1945;52.036;8.614;2023-04-01T03:34:15;9.40;1.00
3860;DHT22;1945;52.036;8.614;2023-04-01T03:36:42;9.80;1.00
3860;DHT22;1945;52.036;8.614;2023-04-01T03:39:08;9.70;1.00
3860;DHT22;1945;52.036;8.614;2023-04-01T03:41:36;9.70;1.00
3860;DHT22;1945;52.036;8.614;2023-04-01T03:44:03;9.70;1.00
3860;DHT22;1945;52.036;8.614;2023-04-01T03:46:31;9.30;1.00
3860;DHT22;1945;52.036;8.614;2023-04-01T03:48:57;9.30;1.00
3860;DHT22;1945;52.036;8.614;2023-04-01T03:51:24;10.00;1.00
3860;DHT22;1945;52.036;8.614;2023-04-01T03:53:51;9.30;2.90
3860;DHT22;1945;52.036;8.614;2023-04-01T03:56:17;9.30;11.20
3860;DHT22;1945;52.036;8.614;2023-04-01T03:58:44;9.30;11.30
3860;DHT22;1945;52.036;8.614;2023-04-01T04:01:15;9.70;19.10
3860;DHT22;1945;52.036;8.614;2023-04-01T04:03:43;9.80;16.60
3860;DHT22;1945;52.036;8.614;2023-04-01T04:06:11;9.30;15.90
3860;DHT22;1945;52.036;8.614;2023-04-01T04:08:38;9.30;9.60
3860;DHT22;1945;52.036;8.614;2023-04-01T04:11:05;9.30;9.20
3860;DHT22;1945;52.036;8.614;2023-04-01T04:13:32;9.30;10.30
3860;DHT22;1945;52.036;8.614;2023-04-01T04:15:58;9.80;15.70
3860;DHT22;1945;52.036;8.614;2023-04-01T04:18:25;9.80;20.20
3860;DHT22;1945;52.036;8.614;2023-04-01T04:20:53;9.60;29.70
3860;DHT22;1945;52.036;8.614;2023-04-01T04:23:20;9.30;33.30
3860;DHT22;1945;52.036;8.614;2023-04-01T04:25:54;9.30;34.00
3860;DHT22;1945;52.036;8.614;2023-04-01T04:28:21;9.30;37.00
3860;DHT22;1945;52.036;8.614;2023-04-01T04:30:48;9.20;44.70
3860;DHT22;1945;52.036;8.614;2023-04-01T04:33:15;9.60;44.00
3860;DHT22;1945;52.036;8.614;2023-04-01T04:35:41;9.70;54.30
3860;DHT22;1945;52.036;8.614;2023-04-01T04:38:09;9.60;55.40
3860;DHT22;1945;52.036;8.614;2023-04-01T04:40:36;9.20;48.10
3860;DHT22;1945;52.036;8.614;2023-04-01T04:43:03;9.60;46.90
3860;DHT22;1945;52.036;8.614;2023-04-01T04:45:30;9.60;40.20
3860;DHT22;1945;52.036;8.614;2023-04-01T04:47:57;8.80;36.60
3860;DHT22;1945;52.036;8.614;2023-04-01T04:50:24;9.70;33.10
3860;DHT22;1945;52.036;8.614;2023-04-01T04:52:51;9.20;38.90
3860;DHT22;1945;52.036;8.614;2023-04-01T04:55:19;9.60;37.60
3860;DHT22;1945;52.036;8.614;2023-04-01T04:57:46;9.20;43.50
3860;DHT22;1945;52.036;8.614;2023-04-01T05:00:13;9.20;41.40
3860;DHT22;1945;52.036;8.614;2023-04-01T05:02:40;9.20;39.90
3860;DHT22;1945;52.036;8.614;2023-04-01T05:05:07;9.20;50.00
3860;DHT22;1945;52.036;8.614;2023-04-01T05:07:34;9.20;43.30
3860;DHT22;1945;52.036;8.614;2023-04-01T05:10:00;9.70;44.80
3860;DHT22;1945;52.036;8.614;2023-04-01T05:12:28;9.60;47.20
3860;DHT22;1945;52.036;8.614;2023-04-01T05:14:56;9.20;49.80
3860;DHT22;1945;52.036;8.614;2023-04-01T05:17:22;9.20;58.90
3860;DHT22;1945;52.036;8.614;2023-04-01T05:19:49;9.50;67.50
3860;DHT22;1945;52.036;8.614;2023-04-01T05:22:16;9.20;74.70
3860;DHT22;1945;52.036;8.614;2023-04-01T05:24:43;9.10;61.20
3860;DHT22;1945;52.036;8.614;2023-04-01T05:27:09;9.50;73.20
3860;DHT22;1945;52.036;8.614;2023-04-01T05:29:37;9.20;64.00
3860;DHT22;1945;52.036;8.614;2023-04-01T05:32:04;9.10;63.50
3860;DHT22;1945;52.036;8.614;2023-04-01T05:34:31;9.60;73.60
3860;DHT22;1945;52.036;8.614;2023-04-01T05:36:57;9.10;74.60
3860;DHT22;1945;52.036;8.614;2023-04-01T05:39:24;9.60;78.20
3860;DHT22;1945;52.036;8.614;2023-04-01T05:41:51;9.10;75.00
3860;DHT22;1945;52.036;8.614;2023-04-01T05:44:18;8.90;66.20
3860;DHT22;1945;52.036;8.614;2023-04-01T05:46:46;9.40;50.00
3860;DHT22;1945;52.036;8.614;2023-04-01T05:49:13;9.10;63.20
3860;DHT22;1945;52.036;8.614;2023-04-01T05:51:40;9.60;59.80
3860;DHT22;1945;52.036;8.614;2023-04-01T05:54:06;9.60;57.50
3860;DHT22;1945;52.036;8.614;2023-04-01T05:56:33;9.60;59.10
3860;DHT22;1945;52.036;8.614;2023-04-01T05:59:00;9.60;59.70
3860;DHT22;1945;52.036;8.614;2023-04-01T06:01:26;9.50;66.80
3860;DHT22;1945;52.036;8.614;2023-04-01T06:03:55;9.10;51.70
3860;DHT22;1945;52.036;8.614;2023-04-01T06:06:24;9.50;47.60
3860;DHT22;1945;52.036;8.614;2023-04-01T06:08:51;9.10;58.30
3860;DHT22;1945;52.036;8.614;2023-04-01T06:11:24;9.40;53.10
3860;DHT22;1945;52.036;8.614;2023-04-01T06:14:09;9.10;70.00
3860;DHT22;1945;52.036;8.614;2023-04-01T06:16:48;9.10;65.40
3860;DHT22;1945;52.036;8.614;2023-04-01T06:19:31;9.50;78.70
3860;DHT22;1945;52.036;8.614;2023-04-01T06:22:13;9.60;79.00
3860;DHT22;1945;52.036;8.614;2023-04-01T06:24:57;9.20;68.60
3860;DHT22;1945;52.036;8.614;2023-04-01T06:27:40;9.20;36.30
3860;DHT22;1945;52.036;8.614;2023-04-01T06:30:23;9.30;48.50
3860;DHT22;1945;52.036;8.614;2023-04-01T06:32:59;9.70;53.80
3860;DHT22;1945;52.036;8.614;2023-04-01T06:35:54;9.40;32.60
3860;DHT22;1945;52.036;8.614;2023-04-01T06:38:45;9.40;25.30
3860;DHT22;1945;52.036;8.614;2023-04-01T06:41:25;9.80;1.00
3860;DHT22;1945;52.036;8.614;2023-04-01T06:43:59;9.60;12.70
3860;DHT22;1945;52.036;8.614;2023-04-01T06:46:37;9.60;1.00
3860;DHT22;1945;52.036;8.614;2023-04-01T06:49:36;9.70;26.90
3860;DHT22;1945;52.036;8.614;2023-04-01T06:52:15;9.90;2.00
3860;DHT22;1945;52.036;8.614;2023-04-01T06:54:49;9.90;5.10
3860;DHT22;1945;52.036;8.614;2023-04-01T06:57:23;10.40;1.00
3860;DHT22;1945;52.036;8.614;2023-04-01T06:59:55;10.00;1.00
3860;DHT22;1945;52.036;8.614;2023-04-01T07:02:28;10.00;1.00
3860;DHT22;1945;52.036;8.614;2023-04-01T07:04:57;10.40;1.00
3860;DHT22;1945;52.036;8.614;2023-04-01T07:07:33;9.90;1.00
3860;DHT22;1945;52.036;8.614;2023-04-01T07:10:05;9.90;1.00
3860;DHT22;1945;52.036;8.614;2023-04-01T07:12:43;9.90;1.00
3860;DHT22;1945;52.036;8.614;2023-04-01T07:15:17;9.90;1.00
3860;DHT22;1945;52.036;8.614;2023-04-01T07:17:47;9.90;1.00
3860;DHT22;1945;52.036;8.614;2023-04-01T07:20:20;9.90;1.00
3860;DHT22;1945;52.036;8.614;2023-04-01T07:22:50;9.90;1.00
3860;DHT22;1945;52.036;8.614;2023-04-01T07:25:20;10.20;1.00
3860;DHT22;1945;52.036;8.614;2023-04-01T07:27:47;10.30;1.00
3860;DHT22;1945;52.036;8.614;2023-04-01T07:30:15;10.20;1.00
3860;DHT22;1945;52.036;8.614;2023-04-01T07:32:45;9.80;1.00
3860;DHT22;1945;52.036;8.614;2023-04-01T07:35:19;9.80;1.00
3860;DHT22;1945;52.036;8.614;2023-04-01T07:38:02;10.20;1.00
3860;DHT22;1945;52.036;8.614;2023-04-01T07:40:39;10.30;1.00
3860;DHT22;1945;52.036;8.614;2023-04-01T07:43:22;10.30;1.00
3860;DHT22;1945;52.036;8.614;2023-04-01T07:45:55;9.70;1.00
3860;DHT22;1945;52.036;8.614;2023-04-01T07:48:28;9.80;1.00
3860;DHT22;1945;52.036;8.614;2023-04-01T07:51:02;10.30;2.00
3860;DHT22;1945;52.036;8.614;2023-04-01T07:53:36;9.70;1.00
3860;DHT22;1945;52.036;8.614;2023-04-01T07:56:07;10.20;1.00
3860;DHT22;1945;52.036;8.614;2023-04-01T07:58:44;10.30;18.40
3860;DHT22;1945;52.036;8.614;2023-04-01T08:01:18;10.30;2.00
3860;DHT22;1945;52.036;8.614;2023-04-01T08:04:04;10.20;11.40
3860;DHT22;1945;52.036;8.614;2023-04-01T08:06:43;10.40;13.00
3860;DHT22;1945;52.036;8.614;2023-04-01T08:09:21;10.40;1.00
3860;DHT22;1945;52.036;8.614;2023-04-01T08:11:57;10.00;1.00
3860;DHT22;1945;52.036;8.614;2023-04-01T08:14:30;10.40;9.40
3860;DHT22;1945;52.036;8.614;2023-04-01T08:17:03;10.60;21.40
3860;DHT22;1945;52.036;8.614;2023-04-01T08:19:43;10.10;1.00
3860;DHT22;1945;52.036;8.614;2023-04-01T08:22:18;10.10;21.20
3860;DHT22;1945;52.036;8.614;2023-04-01T08:24:49;10.60;1.00
3860;DHT22;1945;52.036;8.614;2023-04-01T08:27:22;10.20;1.00
3860;DHT22;1945;52.036;8.614;2023-04-01T08:29:52;10.30;40.20
3860;DHT22;1945;52.036;8.614;2023-04-01T08:32:26;10.50;69.90
3860;DHT22;1945;52.036;8.614;2023-04-01T08:35:01;11.00;1.00
3860;DHT22;1945;52.036;8.614;2023-04-01T08:37:36;10.60;42.80
3860;DHT22;1945;52.036;8.614;2023-04-01T08:40:32;10.80;49.70
3860;DHT22;1945;52.036;8.614;2023-04-01T08:43:09;11.20;27.80
3860;DHT22;1945;52.036;8.614;2023-04-01T08:48:46;11.00;1.00
3860;DHT22;1945;52.036;8.614;2023-04-01T08:54:48;11.30;1.00
3860;DHT22;1945;52.036;8.614;2023-04-01T08:57:35;11.50;1.00
3860;DHT22;1945;52.036;8.614;2023-04-01T09:00:14;11.50;1.00
3860;DHT22;1945;52.036;8.614;2023-04-01T09:02:51;11.60;1.00
3860;DHT22;1945;52.036;8.614;2023-04-01T09:05:37;11.60;1.00
3860;DHT22;1945;52.036;8.614;2023-04-01T09:08:20;11.80;1.00
3860;DHT22;1945;52.036;8.614;2023-04-01T09:11:08;11.70;1.00
3860;DHT22;1945;52.036;8.614;2023-04-01T09:14:12;11.50;1.00
3860;DHT22;1945;52.036;8.614;2023-04-01T09:17:08;11.60;1.00
3860;DHT22;1945;52.036;8.614;2023-04-01T09:19:54;11.80;1.00
3860;DHT22;1945;52.036;8.614;2023-04-01T09:22:42;11.70;1.00
3860;DHT22;1945;52.036;8.614;2023-04-01T09:25:38;12.20;1.00
3860;DHT22;1945;52.036;8.614;2023-04-01T09:28:17;11.90;1.00
3860;DHT22;1945;52.036;8.614;2023-04-01T09:31:13;12.00;1.00
3860;DHT22;1945;52.036;8.614;2023-04-01T09:34:30;12.10;1.00
3860;DHT22;1945;52.036;8.614;2023-04-01T09:37:17;12.20;1.00
3860;DHT22;1945;52.036;8.614;2023-04-01T09:40:08;12.20;1.00
3860;DHT22;1945;52.036;8.614;2023-04-01T09:42:43;12.30;1.00
3860;DHT22;1945;52.036;8.614;2023-04-01T09:45:21;12.30;1.00
3860;DHT22;1945;52.036;8.614;2023-04-01T09:48:05;12.20;1.00
3860;DHT22;1945;52.036;8.614;2023-04-01T09:50:42;12.30;1.00
3860;DHT22;1945;52.036;8.614;2023-04-01T09:53:20;12.20;99.90
3860;DHT22;1945;52.036;8.614;2023-04-01T09:56:23;12.20;1.00
3860;DHT22;1945;52.036;8.614;2023-04-01T10:02:33;12.40;1.00
3860;DHT22;1945;52.036;8.614;2023-04-01T10:05:50;12.40;1.00
3860;DHT22;1945;52.036;8.614;2023-04-01T10:08:41;12.60;1.00
3860;DHT22;1945;52.036;8.614;2023-04-01T10:11:43;12.50;1.00
3860;DHT22;1945;52.036;8.614;2023-04-01T10:14:43;12.20;99.90
3860;DHT22;1945;52.036;8.614;2023-04-01T10:17:58;12.10;1.00
3860;DHT22;1945;52.036;8.614;2023-04-01T10:20:58;12.10;1.00
3860;DHT22;1945;52.036;8.614;2023-04-01T10:23:57;12.00;1.00
3860;DHT22;1945;52.036;8.614;2023-04-01T10:26:45;12.20;1.00
3860;DHT22;1945;52.036;8.614;2023-04-01T10:32:42;12.30;1.00
3860;DHT22;1945;52.036;8.614;2023-04-01T10:35:46;12.40;1.00
3860;DHT22;1945;52.036;8.614;2023-04-01T10:38:52;12.60;1.00
3860;DHT22;1945;52.036;8.614;2023-04-01T10:41:53;13.20;1.00
3860;DHT22;1945;52.036;8.614;2023-04-01T10:48:12;12.80;1.00
3860;DHT22;1945;52.036;8.614;2023-04-01T10:51:01;12.60;99.90
3860;DHT22;1945;52.036;8.614;2023-04-01T10:54:07;12.60;1.00
3860;DHT22;1945;52.036;8.614;2023-04-01T10:56:40;12.80;99.90
3860;DHT22;1945;52.036;8.614;2023-04-01T10:59:32;12.90;99.90
3860;DHT22;1945;52.036;8.614;2023-04-01T11:05:25;12.80;99.90
3860;DHT22;1945;52.036;8.614;2023-04-01T11:08:38;12.60;99.90
3860;DHT22;1945;52.036;8.614;2023-04-01T11:14:32;12.50;1.00
3860;DHT22;1945;52.036;8.614;2023-04-01T11:17:35;12.40;1.00
3860;DHT22;1945;52.036;8.614;2023-04-01T11:20:31;12.50;1.00
3860;DHT22;1945;52.036;8.614;2023-04-01T11:23:13;12.50;1.00
3860;DHT22;1945;52.036;8.614;2023-04-01T11:25:53;12.50;1.00
3860;DHT22;1945;52.036;8.614;2023-04-01T11:31:46;12.70;1.00
3860;DHT22;1945;52.036;8.614;2023-04-01T11:34:38;12.70;1.00
3860;DHT22;1945;52.036;8.614;2023-04-01T11:37:20;12.70;1.00
3860;DHT22;1945;52.036;8.614;2023-04-01T11:39:59;12.80;1.00
3860;DHT22;1945;52.036;8.614;2023-04-01T11:42:35;12.60;1.00
3860;DHT22;1945;52.036;8.614;2023-04-01T11:45:16;12.70;1.00
3860;DHT22;1945;52.036;8.614;2023-04-01T11:48:08;13.00;1.00
3860;DHT22;1945;52.036;8.614;2023-04-01T11:53:44;13.30;1.00
3860;DHT22;1945;52.036;8.614;2023-04-01T11:56:29;13.00;99.90
3860;DHT22;1945;52.036;8.614;2023-04-01T12:02:08;13.00;1.00
3860;DHT22;1945;52.036;8.614;2023-04-01T12:07:55;13.30;99.90
3860;DHT22;1945;52.036;8.614;2023-04-01T12:10:29;13.40;99.90
3860;DHT22;1945;52.036;8.614;2023-04-01T12:13:05;13.90;99.90
3860;DHT22;1945;52.036;8.614;2023-04-01T12:15:52;13.50;99.90
3860;DHT22;1945;52.036;8.614;2023-04-01T12:18:26;13.60;99.90
3860;DHT22;1945;52.036;8.614;2023-04-01T12:21:00;13.60;99.90
3860;DHT22;1945;52.036;8.614;2023-04-01T12:23:45;13.60;99.90
3860;DHT22;1945;52.036;8.614;2023-04-01T12:26:31;13.60;99.90
3860;DHT22;1945;52.036;8.614;2023-04-01T12:29:37;13.70;99.90
3860;DHT22;1945;52.036;8.614;2023-04-01T12:32:15;13.80;99.90
3860;DHT22;1945;52.036;8.614;2023-04-01T12:34:58;13.80;99.90
3860;DHT22;1945;52.036;8.614;2023-04-01T12:37:36;13.90;99.90
3860;DHT22;1945;52.036;8.614;2023-04-01T12:40:20;13.90;99.90
3860;DHT22;1945;52.036;8.614;2023-04-01T12:42:59;13.80;99.90
3860;DHT22;1945;52.036;8.614;2023-04-01T12:45:30;13.90;99.90
3860;DHT22;1945;52.036;8.614;2023-04-01T12:48:28;13.90;99.90
3860;DHT22;1945;52.036;8.614;2023-04-01T12:51:19;13.70;99.90
3860;DHT22;1945;52.036;8.614;2023-04-01T12:54:04;13.50;99.90
3860;DHT22;1945;52.036;8.614;2023-04-01T12:56:44;13.80;99.90
3860;DHT22;1945;52.036;8.614;2023-04-01T12:59:38;13.80;99.90
3860;DHT22;1945;52.036;8.614;2023-04-01T13:02:13;13.90;99.90
3860;DHT22;1945;52.036;8.614;2023-04-01T13:05:20;13.80;99.90
3860;DHT22;1945;52.036;8.614;2023-04-01T13:08:14;13.80;99.90
3860;DHT22;1945;52.036;8.614;2023-04-01T13:10:56;13.70;99.90
3860;DHT22;1945;52.036;8.614;2023-04-01T13:13:54;13.80;99.90
3860;DHT22;1945;52.036;8.614;2023-04-01T13:16:27;13.80;99.90
3860;DHT22;1945;52.036;8.614;2023-04-01T13:18:59;13.60;99.90
3860;DHT22;1945;52.036;8.614;2023-04-01T13:21:38;13.90;99.90
3860;DHT22;1945;52.036;8.614;2023-04-01T13:24:14;13.80;99.90
3860;DHT22;1945;52.036;8.614;2023-04-01T13:26:50;13.90;99.90
3860;DHT22;1945;52.036;8.614;2023-04-01T13:29:23;13.70;99.90
3860;DHT22;1945;52.036;8.614;2023-04-01T13:32:04;13.60;99.90
3860;DHT22;1945;52.036;8.614;2023-04-01T13:34:39;13.70;99.90
3860;DHT22;1945;52.036;8.614;2023-04-01T13:37:22;13.70;99.90
3860;DHT22;1945;52.036;8.614;2023-04-01T13:40:05;13.50;99.90
3860;DHT22;1945;52.036;8.614;2023-04-01T13:42:45;13.60;99.90
3860;DHT22;1945;52.036;8.614;2023-04-01T13:45:16;13.60;99.90
3860;DHT22;1945;52.036;8.614;2023-04-01T13:48:22;13.60;99.90
3860;DHT22;1945;52.036;8.614;2023-04-01T13:54:05;13.60;99.90
3860;DHT22;1945;52.036;8.614;2023-04-01T13:56:42;13.50;99.90
3860;DHT22;1945;52.036;8.614;2023-04-01T13:59:35;13.40;99.90
3860;DHT22;1945;52.036;8.614;2023-04-01T14:02:27;13.40;99.90
3860;DHT22;1945;52.036;8.614;2023-04-01T14:05:15;13.60;99.90
3860;DHT22;1945;52.036;8.614;2023-04-01T14:07:56;13.60;99.90
3860;DHT22;1945;52.036;8.614;2023-04-01T14:10:31;13.60;99.90
3860;DHT22;1945;52.036;8.614;2023-04-01T14:13:03;13.50;99.90
3860;DHT22;1945;52.036;8.614;2023-04-01T14:15:48;13.50;99.90
3860;DHT22;1945;52.036;8.614;2023-04-01T14:18:37;13.50;99.90
3860;DHT22;1945;52.036;8.614;2023-04-01T14:21:19;13.30;99.90
3860;DHT22;1945;52.036;8.614;2023-04-01T14:27:21;13.20;1.00
3860;DHT22;1945;52.036;8.614;2023-04-01T14:30:17;13.10;99.90
3860;DHT22;1945;52.036;8.614;2023-04-01T14:32:51;13.10;99.90
3860;DHT22;1945;52.036;8.614;2023-04-01T14:35:33;13.10;99.90
3860;DHT22;1945;52.036;8.614;2023-04-01T14:38:23;13.10;99.90
3860;DHT22;1945;52.036;8.614;2023-04-01T14:41:02;13.20;99.90
3860;DHT22;1945;52.036;8.614;2023-04-01T14:44:01;13.30;99.90
3860;DHT22;1945;52.036;8.614;2023-04-01T14:46:59;13.20;99.90
3860;DHT22;1945;52.036;8.614;2023-04-01T14:49:33;13.00;99.90
3860;DHT22;1945;52.036;8.614;2023-04-01T14:52:09;13.00;99.90
3860;DHT22;1945;52.036;8.614;2023-04-01T14:54:38;13.00;99.90
3860;DHT22;1945;52.036;8.614;2023-04-01T14:57:11;13.00;99.90
3860;DHT22;1945;52.036;8.614;2023-04-01T14:59:40;13.00;99.90
3860;DHT22;1945;52.036;8.614;2023-04-01T15:02:22;13.00;1.00
3860;DHT22;1945;52.036;8.614;2023-04-01T15:04:58;13.00;1.00
3860;DHT22;1945;52.036;8.614;2023-04-01T15:07:42;12.90;1.00
3860;DHT22;1945;52.036;8.614;2023-04-01T15:10:34;12.80;1.00
3860;DHT22;1945;52.036;8.614;2023-04-01T15:13:12;12.80;1.00
3860;DHT22;1945;52.036;8.614;2023-04-01T15:15:49;12.80;1.00
3860;DHT22;1945;52.036;8.614;2023-04-01T15:18:30;12.80;1.00
3860;DHT22;1945;52.036;8.614;2023-04-01T15:21:13;12.80;1.00
3860;DHT22;1945;52.036;8.614;2023-04-01T15:23:49;13.20;1.00
3860;DHT22;1945;52.036;8.614;2023-04-01T15:26:32;12.60;99.90
3860;DHT22;1945;52.036;8.614;2023-04-01T15:29:08;13.00;1.00
3860;DHT22;1945;52.036;8.614;2023-04-01T15:31:40;12.70;1.00
3860;DHT22;1945;52.036;8.614;2023-04-01T15:34:26;12.70;1.00
3860;DHT22;1945;52.036;8.614;2023-04-01T15:37:01;12.60;1.00
3860;DHT22;1945;52.036;8.614;2023-04-01T15:39:42;12.60;1.00
3860;DHT22;1945;52.036;8.614;2023-04-01T15:42:20;12.50;1.00
3860;DHT22;1945;52.036;8.614;2023-04-01T15:44:58;12.60;1.00
3860;DHT22;1945;52.036;8.614;2023-04-01T15:47:34;12.50;1.00
3860;DHT22;1945;52.036;8.614;2023-04-01T15:53:37;12.40;1.00
3860;DHT22;1945;52.036;8.614;2023-04-01T15:56:19;12.30;1.00
3860;DHT22;1945;52.036;8.614;2023-04-01T15:58:59;12.20;1.00
3860;DHT22;1945;52.036;8.614;2023-04-01T16:01:35;12.20;1.00
3860;DHT22;1945;52.036;8.614;2023-04-01T16:07:08;12.10;1.00
3860;DHT22;1945;52.036;8.614;2023-04-01T16:09:46;12.00;1.00
3860;DHT22;1945;52.036;8.614;2023-04-01T16:12:30;12.00;1.00
3860;DHT22;1945;52.036;8.614;2023-04-01T16:15:13;11.90;1.00
3860;DHT22;1945;52.036;8.614;2023-04-01T16:17:54;11.90;1.00
3860;DHT22;1945;52.036;8.614;2023-04-01T16:20:42;12.30;1.00
3860;DHT22;1945;52.036;8.614;2023-04-01T16:23:18;11.80;1.00
3860;DHT22;1945;52.036;8.614;2023-04-01T16:25:52;11.80;1.00
3860;DHT22;1945;52.036;8.614;2023-04-01T16:28:24;11.70;1.00
3860;DHT22;1945;52.036;8.614;2023-04-01T16:30:58;11.70;1.00
3860;DHT22;1945;52.036;8.614;2023-04-01T16:33:35;11.80;1.00
3860;DHT22;1945;52.036;8.614;2023-04-01T16:36:10;12.20;1.00
3860;DHT22;1945;52.036;8.614;2023-04-01T16:38:43;11.70;1.00
3860;DHT22;1945;52.036;8.614;2023-04-01T16:41:17;11.60;1.00
3860;DHT22;1945;52.036;8.614;2023-04-01T16:43:46;11.70;1.00
3860;DHT22;1945;52.036;8.614;2023-04-01T16:46:32;12.10;1.00
3860;DHT22;1945;52.036;8.614;2023-04-01T16:49:29;11.60;1.00
3860;DHT22;1945;52.036;8.614;2023-04-01T16:52:12;11.70;1.00
3860;DHT22;1945;52.036;8.614;2023-04-01T16:54:45;11.60;1.00
3860;DHT22;1945;52.036;8.614;2023-04-01T16:57:19;11.60;1.00
3860;DHT22;1945;52.036;8.614;2023-04-01T16:59:54;11.60;1.00
3860;DHT22;1945;52.036;8.614;2023-04-01T17:02:26;11.90;1.00
3860;DHT22;1945;52.036;8.614;2023-04-01T17:04:59;11.60;1.00
3860;DHT22;1945;52.036;8.614;2023-04-01T17:07:34;11.60;1.00
3860;DHT22;1945;52.036;8.614;2023-04-01T17:10:18;11.60;1.00
3860;DHT22;1945;52.036;8.614;2023-04-01T17:12:55;11.70;1.00
3860;DHT22;1945;52.036;8.614;2023-04-01T17:15:30;11.60;1.00
3860;DHT22;1945;52.036;8.614;2023-04-01T17:18:03;11.60;1.00
3860;DHT22;1945;52.036;8.614;2023-04-01T17:20:41;11.30;1.00
3860;DHT22;1945;52.036;8.614;2023-04-01T17:23:14;11.10;1.00
3860;DHT22;1945;52.036;8.614;2023-04-01T17:26:02;10.90;1.00
3860;DHT22;1945;52.036;8.614;2023-04-01T17:28:41;10.70;1.00
3860;DHT22;1945;52.036;8.614;2023-04-01T17:31:16;11.00;1.00
3860;DHT22;1945;52.036;8.614;2023-04-01T17:33:57;10.50;1.00
3860;DHT22;1945;52.036;8.614;2023-04-01T17:36:35;10.50;1.00
3860;DHT22;1945;52.036;8.614;2023-04-01T17:39:33;10.40;1.00
3860;DHT22;1945;52.036;8.614;2023-04-01T17:42:08;10.40;1.00
3860;DHT22;1945;52.036;8.614;2023-04-01T17:44:45;10.10;1.00
3860;DHT22;1945;52.036;8.614;2023-04-01T17:47:31;10.20;1.00
3860;DHT22;1945;52.036;8.614;2023-04-01T17:50:09;10.10;1.00
3860;DHT22;1945;52.036;8.614;2023-04-01T17:52:43;10.10;1.00
3860;DHT22;1945;52.036;8.614;2023-04-01T17:55:40;10.00;1.00
3860;DHT22;1945;52.036;8.614;2023-04-01T17:58:17;9.90;1.00
3860;DHT22;1945;52.036;8.614;2023-04-01T18:00:51;9.90;1.00
3860;DHT22;1945;52.036;8.614;2023-04-01T18:03:38;9.80;1.00
3860;DHT22;1945;52.036;8.614;2023-04-01T18:06:12;9.80;1.00
3860;DHT22;1945;52.036;8.614;2023-04-01T18:08:50;9.70;1.00
3860;DHT22;1945;52.036;8.614;2023-04-01T18:11:30;9.80;1.00
3860;DHT22;1945;52.036;8.614;2023-04-01T18:14:40;10.30;1.00